Time;durP1;ratioP1;P1;durP2;ratioP2;P2;SDS_P1;SDS_P2;PMS_P1;PMS_P2;Temp;Humidity;BMP_temperature;BMP_pressure;BME280_temperature;BME280_humidity;BME280_pressure;Samples;Min_cycle;Max_cycle;Signal;HPM_P1;HPM_P2
2023/01/04 00:02:28;;;;;;;;;53.50;39.25;;;;;9.55;76.44;100662.31;5057236;28;8848;-77
2023/01/04 00:04:58;;;;;;;;;49.00;40.00;;;;;9.07;78.60;100665.56;5066103;28;8902;-77
2023/01/04 00:07:29;;;;;;;;;44.25;39.25;;;;;9.01;78.90;100666.28;5033105;28;8839;-78
2023/01/04 00:09:57;;;;;;;;;49.75;41.00;;;;;9.04;79.24;100668.09;5033717;28;8855;-77
2023/01/04 00:12:27;;;;;;;;;54.00;42.25;;;;;8.97;79.65;100670.53;5033477;28;8848;-78
2023/01/04 00:14:55;;;;;;;;;45.25;39.25;;;;;9.04;79.03;100673.31;5033272;28;8860;-78
2023/01/04 00:17:24;;;;;;;;;51.25;41.50;;;;;9.23;78.52;100666.81;5054011;28;8844;-80
2023/01/04 00:19:53;;;;;;;;;44.00;41.00;;;;;9.12;79.14;100672.63;5069417;28;8864;-79
2023/01/04 00:22:23;;;;;;;;;42.00;38.25;;;;;9.25;78.61;100670.34;5086477;28;8865;-79
2023/01/04 00:24:52;;;;;;;;;45.75;39.25;;;;;9.21;78.59;100673.72;5069313;28;8928;-77
2023/01/04 00:27:21;;;;;;;;;48.50;40.00;;;;;9.04;79.74;100673.31;5086357;28;8845;-79
2023/01/04 00:29:49;;;;;;;;;44.75;38.50;;;;;8.98;79.78;100684.44;5069128;28;8856;-76
2023/01/04 00:32:18;;;;;;;;;46.50;39.00;;;;;8.96;80.09;100680.94;5052927;28;8876;-77
2023/01/04 00:34:47;;;;;;;;;32.25;32.25;;;;;9.02;80.23;100690.56;5069593;28;8857;-79
2023/01/04 00:37:16;;;;;;;;;54.00;41.75;;;;;9.13;79.30;100690.03;5128259;27;8857;-77
2023/01/04 00:39:46;;;;;;;;;50.00;42.25;;;;;9.20;79.69;100696.22;5091692;27;8880;-79
2023/01/04 00:42:15;;;;;;;;;51.25;39.50;;;;;9.41;78.57;100694.97;5128553;27;8846;-80
2023/01/04 00:44:43;;;;;;;;;50.25;42.75;;;;;9.51;77.87;100695.22;5093121;27;8874;-77
2023/01/04 00:47:12;;;;;;;;;45.75;41.50;;;;;9.48;77.60;100707.28;5111444;27;8867;-80
2023/01/04 00:49:41;;;;;;;;;43.00;38.25;;;;;9.48;77.94;100705.56;5129396;27;8879;-77
2023/01/04 00:52:10;;;;;;;;;45.25;38.25;;;;;9.42;78.19;100704.56;5111163;27;9617;-79
2023/01/04 00:54:38;;;;;;;;;38.75;34.25;;;;;9.47;78.60;100710.72;5094270;27;8869;-78
2023/01/04 00:57:09;;;;;;;;;41.50;37.00;;;;;9.89;76.94;100699.50;5094268;27;9646;-80
2023/01/04 00:59:37;;;;;;;;;55.50;42.00;;;;;10.22;75.08;100703.63;5111237;27;8853;-78
2023/01/04 01:02:07;;;;;;;;;42.00;38.25;;;;;10.73;73.79;100701.13;5093819;27;8825;-77
2023/01/04 01:04:36;;;;;;;;;47.00;38.67;;;;;11.15;71.80;100704.44;5094580;27;8857;-80
2023/01/04 01:07:05;;;;;;;;;41.00;35.75;;;;;11.43;70.37;100697.03;5115120;27;8829;-77
2023/01/04 01:09:34;;;;;;;;;37.50;36.50;;;;;11.64;69.28;100704.28;5150434;27;8831;-79
2023/01/04 01:12:03;;;;;;;;;41.00;35.25;;;;;11.88;68.72;100693.28;5118780;27;8862;-77
2023/01/04 01:14:33;;;;;;;;;39.75;35.75;;;;;11.98;66.79;100689.94;5154687;27;8840;-79
2023/01/04 01:17:02;;;;;;;;;51.25;37.50;;;;;12.13;66.54;100693.59;5094262;28;9574;-79
2023/01/04 01:19:32;;;;;;;;;40.25;38.25;;;;;12.12;66.17;100689.22;5077204;28;9752;-79
2023/01/04 01:22:01;;;;;;;;;41.50;37.25;;;;;11.98;65.72;100691.69;5110972;28;8844;-79
2023/01/04 01:24:29;;;;;;;;;38.50;34.50;;;;;11.27;68.72;100690.72;5077336;28;9769;-78
2023/01/04 01:26:58;;;;;;;;;42.50;35.50;;;;;11.56;67.69;100690.25;5077116;28;8845;-79
2023/01/04 01:29:27;;;;;;;;;49.50;40.00;;;;;11.63;67.88;100684.25;5076634;28;8859;-78
2023/01/04 01:31:57;;;;;;;;;45.00;38.00;;;;;11.64;67.18;100692.09;5076744;28;8825;-77
2023/01/04 01:34:26;;;;;;;;;47.50;37.50;;;;;11.94;66.11;100689.91;5076764;28;8885;-78
2023/01/04 01:36:55;;;;;;;;;46.50;39.75;;;;;11.97;66.14;100685.59;5076855;28;8837;-77
2023/01/04 01:39:24;;;;;;;;;45.25;39.50;;;;;11.80;66.30;100692.31;5076568;28;8863;-78
2023/01/04 01:41:53;;;;;;;;;44.00;38.25;;;;;12.04;65.65;100694.38;5076080;28;8833;-79
2023/01/04 01:45:10;;;;;;;;;37.50;32.75;;;;;12.31;65.59;100698.19;5093180;28;8848;-80
2023/01/04 01:47:45;;;;;;;;;40.75;37.25;;;;;12.26;64.42;100700.72;5053199;28;9610;-79
2023/01/04 01:50:26;;;;;;;;;49.75;40.00;;;;;12.25;65.01;100697.25;5069723;28;9736;-80
2023/01/04 01:52:58;;;;;;;;;45.50;36.75;;;;;12.45;64.60;100697.44;5052759;28;8822;-78
2023/01/04 01:55:28;;;;;;;;;46.75;40.25;;;;;12.24;64.41;100698.09;5101371;28;8851;-77
2023/01/04 01:58:00;;;;;;;;;47.00;39.00;;;;;12.59;63.64;100691.47;5043292;28;8943;-79
2023/01/04 02:00:30;;;;;;;;;42.00;38.50;;;;;12.56;63.37;100689.72;5110296;28;8832;-78
2023/01/04 02:03:18;;;;;;;;;51.00;40.50;;;;;12.76;63.11;100686.41;5074443;28;8908;-78
2023/01/04 02:05:51;;;;;;;;;42.00;36.50;;;;;12.86;63.65;100693.47;5056086;28;8851;-77
2023/01/04 02:08:24;;;;;;;;;41.75;37.25;;;;;13.03;62.42;100685.78;5056258;28;8855;-81
2023/01/04 02:10:52;;;;;;;;;47.00;39.00;;;;;13.17;61.85;100670.16;5032747;28;8847;-79
2023/01/04 02:14:25;;;;;;;;;42.00;39.25;;;;;13.30;61.45;100684.22;5049558;28;9616;-78
2023/01/04 02:16:22;;;;;;;;;46.00;37.75;;;;;13.49;61.27;100672.13;5049803;28;8867;-78
2023/01/04 02:19:01;;;;;;;;;42.25;36.50;;;;;13.58;60.67;100672.19;5050706;28;9585;-78
2023/01/04 02:21:43;;;;;;;;;48.50;38.75;;;;;13.71;60.84;100667.91;5051890;28;8870;-79
2023/01/04 02:24:40;;;;;;;;;42.75;37.75;;;;;13.85;60.37;100666.19;5066405;28;8888;-79
2023/01/04 02:27:38;;;;;;;;;44.25;37.00;;;;;13.93;59.75;100658.34;5069653;28;9585;-79
2023/01/04 02:30:38;;;;;;;;;46.75;38.50;;;;;13.96;59.33;100658.38;5069417;28;8917;-79
2023/01/04 02:33:28;;;;;;;;;46.50;39.00;;;;;13.97;59.37;100661.00;5070493;28;8937;-78
2023/01/04 02:36:06;;;;;;;;;44.50;36.50;;;;;13.83;59.12;100663.56;5072216;28;8869;-78
2023/01/04 02:38:47;;;;;;;;;42.75;38.25;;;;;13.63;59.11;100655.63;5072601;28;8965;-77
2023/01/04 02:41:27;;;;;;;;;43.00;36.25;;;;;13.38;59.98;100665.09;5062547;27;8857;-79
2023/01/04 02:46:58;;;;;;;;;49.00;40.00;;;;;13.41;60.04;100653.75;5096900;27;9731;-79
2023/01/04 02:52:16;;;;;;;;;43.25;38.00;;;;;13.04;60.25;100663.94;5132001;27;8833;-77
2023/01/04 02:54:47;;;;;;;;;41.25;38.00;;;;;13.12;60.75;100657.03;5096221;27;8822;-78
2023/01/04 02:57:39;;;;;;;;;38.75;37.50;;;;;13.27;60.58;100657.13;5109498;27;8854;-78
2023/01/04 03:00:21;;;;;;;;;45.25;37.25;;;;;13.39;60.27;100658.09;5116960;27;8847;-79
2023/01/04 03:06:17;;;;;;;;;49.00;41.00;;;;;12.89;61.60;100664.69;5153572;27;8954;-78
2023/01/04 03:08:59;;;;;;;;;42.25;37.50;;;;;12.75;62.04;100663.72;5134894;27;8920;-77
2023/01/04 03:14:29;;;;;;;;;49.25;40.25;;;;;11.13;68.29;100677.41;5054256;28;8981;-79
2023/01/04 03:17:03;;;;;;;;;47.25;40.25;;;;;11.02;68.98;100679.88;5020724;28;9889;-76
2023/01/04 03:19:53;;;;;;;;;38.25;34.00;;;;;11.38;68.05;100680.41;5071039;28;8834;-78
2023/01/04 03:36:47;;;;;;;;;36.25;33.75;;;;;11.02;69.11;100677.28;5070021;28;8846;-77
2023/01/04 03:51:03;;;;;;;;;31.00;29.75;;;;;11.21;67.54;100695.81;5115556;27;8843;-78
2023/01/04 03:53:36;;;;;;;;;39.00;32.25;;;;;11.49;67.16;100697.09;5115569;27;9607;-79
2023/01/04 03:56:08;;;;;;;;;33.25;30.00;;;;;11.42;66.67;100695.28;5086643;28;8900;-79
2023/01/04 03:58:38;;;;;;;;;40.25;36.75;;;;;11.31;67.41;100692.50;5070035;28;8872;-77
2023/01/04 04:01:07;;;;;;;;;38.50;35.75;;;;;11.57;66.29;100698.09;5070147;28;8857;-78
2023/01/04 04:09:09;;;;;;;;;40.50;34.50;;;;;11.43;66.92;100703.13;5053158;28;8846;-77
2023/01/04 04:11:39;;;;;;;;;40.50;33.00;;;;;11.63;66.44;100699.94;5049251;28;8861;-78
2023/01/04 04:14:08;;;;;;;;;38.60;32.20;;;;;11.79;65.92;100687.94;5032746;28;8833;-77
2023/01/04 04:16:36;;;;;;;;;38.50;34.50;;;;;12.02;64.94;100689.16;5017210;28;9014;-77
2023/01/04 04:19:06;;;;;;;;;37.00;34.00;;;;;12.20;64.92;100684.97;5066121;28;8853;-78
2023/01/04 04:21:37;;;;;;;;;42.75;36.00;;;;;12.48;64.05;100683.53;5049208;28;8853;-78
2023/01/04 04:24:06;;;;;;;;;37.75;36.50;;;;;12.53;63.91;100692.28;5066121;28;8962;-80
2023/01/04 04:26:35;;;;;;;;;36.50;34.50;;;;;12.70;63.29;100696.81;5062867;27;8843;-77
2023/01/04 04:29:05;;;;;;;;;50.00;39.75;;;;;12.23;63.32;100703.31;5126851;27;8835;-77
2023/01/04 04:31:34;;;;;;;;;46.25;39.50;;;;;12.18;63.85;100699.78;5110340;27;8835;-79
2023/01/04 04:34:03;;;;;;;;;70.50;51.75;;;;;12.27;63.74;100692.03;5110686;27;8869;-78
2023/01/04 04:36:32;;;;;;;;;90.00;73.75;;;;;12.43;63.24;100703.53;5093608;27;8913;-78
2023/01/04 04:39:01;;;;;;;;;82.67;65.00;;;;;12.57;63.47;100706.28;5126788;27;10432;-78
2023/01/04 04:41:37;;;;;;;;;49.75;42.00;;;;;12.49;62.77;100711.44;5109302;27;8988;-78
2023/01/04 04:44:10;;;;;;;;;40.25;32.75;;;;;12.22;63.89;100715.50;5131669;27;8923;-79
2023/01/04 04:46:39;;;;;;;;;45.50;36.50;;;;;12.35;63.28;100720.91;5131786;27;8859;-79
2023/01/04 04:49:08;;;;;;;;;38.75;35.50;;;;;12.48;62.91;100715.81;5149901;27;8994;-77
2023/01/04 04:51:38;;;;;;;;;44.25;37.25;;;;;12.51;62.45;100714.06;5131313;27;9020;-79
2023/01/04 04:54:08;;;;;;;;;39.50;37.25;;;;;12.63;62.76;100717.69;5115662;27;8811;-78
2023/01/04 04:56:37;;;;;;;;;49.75;40.00;;;;;12.05;63.38;100725.75;5131692;27;8848;-78
2023/01/04 04:59:08;;;;;;;;;70.00;55.50;;;;;12.04;63.92;100720.50;5115437;27;8812;-77
2023/01/04 05:01:37;;;;;;;;;81.33;62.67;;;;;12.15;64.18;100723.25;5131848;27;8847;-79
2023/01/04 05:04:06;;;;;;;;;57.50;45.25;;;;;12.29;63.74;100726.94;5131773;27;9000;-79
2023/01/04 05:06:35;;;;;;;;;51.75;41.50;;;;;12.50;62.67;100718.44;5128762;27;8899;-78
2023/01/04 05:09:04;;;;;;;;;37.75;35.00;;;;;12.53;62.64;100718.44;5094501;27;8845;-78
2023/01/04 05:14:21;;;;;;;;;49.75;40.00;;;;;12.31;63.36;100724.34;5129123;27;8988;-78
2023/01/04 05:16:49;;;;;;;;;50.50;44.75;;;;;12.55;62.82;100718.47;5093581;27;8856;-79
2023/01/04 05:19:18;;;;;;;;;66.00;51.50;;;;;12.56;62.99;100721.13;5111067;27;8877;-80
2023/01/04 05:21:47;;;;;;;;;56.25;44.00;;;;;12.56;62.80;100722.88;5110711;27;8869;-76
2023/01/04 05:24:16;;;;;;;;;54.75;44.25;;;;;12.59;62.25;100721.16;5127511;27;8845;-78
2023/01/04 05:26:45;;;;;;;;;55.00;42.25;;;;;12.67;62.46;100719.47;5121957;27;8843;-78
2023/01/04 05:30:49;;;;;;;;;55.75;41.25;;;;;12.76;61.97;100725.66;5130897;27;8859;-79
2023/01/04 05:32:03;;;;;;;;;56.50;45.50;;;;;12.90;61.99;100723.19;5134905;27;8896;-78
2023/01/04 05:34:32;;;;;;;;;117.50;107.25;;;;;12.93;61.48;100723.19;5133126;27;8835;-76
2023/01/04 05:37:01;;;;;;;;;54.25;46.25;;;;;12.96;61.31;100731.97;5147430;27;10694;-77
2023/01/04 05:39:30;;;;;;;;;54.25;43.25;;;;;13.09;61.05;100716.38;5111036;27;8841;-81
2023/01/04 05:44:45;;;;;;;;;61.25;50.50;;;;;13.22;60.38;100719.09;5091700;28;9401;-78
2023/01/04 05:47:15;;;;;;;;;58.00;46.25;;;;;13.35;59.94;100720.09;5093789;28;8832;-76
2023/01/04 05:49:44;;;;;;;;;147.75;126.00;;;;;13.36;60.34;100734.06;5081926;28;8854;-79
2023/01/04 05:52:12;;;;;;;;;60.25;49.00;;;;;13.36;59.79;100726.19;5067053;28;10751;-78
2023/01/04 05:54:41;;;;;;;;;60.00;46.75;;;;;13.42;59.46;100727.13;5052130;28;9662;-78
2023/01/04 05:57:10;;;;;;;;;60.00;47.00;;;;;13.20;59.96;100717.31;5068554;28;8885;-78
2023/01/04 05:59:39;;;;;;;;;59.00;43.75;;;;;13.20;59.66;100725.19;5035524;28;8841;-79
2023/01/04 06:02:16;;;;;;;;;59.75;47.25;;;;;13.35;59.98;100724.47;5051793;28;8845;-79
2023/01/04 06:04:46;;;;;;;;;58.25;46.75;;;;;13.28;59.66;100728.72;5063607;28;8995;-78
2023/01/04 06:07:22;;;;;;;;;66.00;49.00;;;;;13.06;60.45;100735.53;5065910;28;8826;-77
2023/01/04 06:09:51;;;;;;;;;62.75;51.00;;;;;13.03;60.47;100735.53;5079981;28;8850;-80
2023/01/04 06:12:20;;;;;;;;;61.25;49.00;;;;;12.38;61.87;100736.59;5101621;28;8851;-78
2023/01/04 06:14:49;;;;;;;;;49.25;38.50;;;;;12.16;63.36;100738.13;5078216;28;8941;-77
2023/01/04 06:17:19;;;;;;;;;58.25;49.25;;;;;12.21;63.12;100745.16;5072636;28;8855;-80
2023/01/04 06:19:48;;;;;;;;;54.25;43.75;;;;;12.42;62.97;100743.63;5055526;28;8957;-78
2023/01/04 06:22:17;;;;;;;;;59.25;47.50;;;;;11.93;64.31;100751.75;5071754;28;8855;-80
2023/01/04 06:24:46;;;;;;;;;65.50;50.75;;;;;12.14;63.17;100751.16;5087728;28;8825;-80
2023/01/04 06:27:14;;;;;;;;;64.75;50.25;;;;;12.16;63.42;100753.81;5126954;27;8843;-79
2023/01/04 06:29:44;;;;;;;;;59.00;44.50;;;;;12.21;62.61;100749.47;5116974;27;8896;-77
2023/01/04 06:32:13;;;;;;;;;63.00;49.50;;;;;12.33;62.86;100744.41;5116518;27;8870;-78
2023/01/04 06:34:43;;;;;;;;;64.75;51.25;;;;;12.60;61.62;100754.28;5134130;27;8915;-78
2023/01/04 06:37:12;;;;;;;;;68.75;53.00;;;;;12.77;61.50;100753.59;5133608;27;8843;-78
2023/01/04 06:39:41;;;;;;;;;50.50;40.75;;;;;12.83;61.35;100754.53;5115539;27;8946;-78
2023/01/04 06:42:43;;;;;;;;;64.75;51.25;;;;;12.92;60.64;100758.13;5114057;27;8849;-78
2023/01/04 06:44:59;;;;;;;;;64.75;52.00;;;;;13.03;59.95;100764.31;5132492;27;8969;-78
2023/01/04 06:47:27;;;;;;;;;66.50;51.75;;;;;13.16;59.64;100760.94;5132692;27;8857;-78
2023/01/04 06:49:57;;;;;;;;;62.25;48.25;;;;;13.27;59.42;100761.06;5132831;27;8864;-79
2023/01/04 06:52:26;;;;;;;;;65.50;51.50;;;;;13.21;59.61;100761.88;5096686;27;8984;-78
2023/01/04 06:54:55;;;;;;;;;69.50;52.00;;;;;13.34;58.96;100762.84;5113492;27;8845;-80
2023/01/04 06:57:24;;;;;;;;;62.50;51.00;;;;;13.40;58.99;100764.66;5113798;27;8873;-80
2023/01/04 06:59:53;;;;;;;;;63.00;51.25;;;;;13.45;58.98;100769.06;5113217;27;8822;-79
2023/01/04 07:02:21;;;;;;;;;66.75;52.25;;;;;13.48;58.81;100768.22;5113514;27;8857;-79
2023/01/04 07:04:51;;;;;;;;;66.50;53.75;;;;;13.53;58.60;100763.00;5130766;27;8833;-78
2023/01/04 07:07:21;;;;;;;;;63.75;52.25;;;;;13.64;58.36;100764.81;5131611;27;8937;-79
2023/01/04 07:09:49;;;;;;;;;64.50;48.50;;;;;13.62;57.95;100769.19;5131721;27;8870;-77
2023/01/04 07:12:18;;;;;;;;;61.50;52.00;;;;;13.55;57.94;100775.25;5132181;27;8867;-79
2023/01/04 07:14:47;;;;;;;;;62.75;49.75;;;;;13.56;57.83;100774.38;5062226;27;8837;-78
2023/01/04 07:17:15;;;;;;;;;60.25;47.50;;;;;13.57;58.19;100776.16;5095354;27;8930;-79
2023/01/04 07:19:44;;;;;;;;;65.25;52.25;;;;;13.58;57.71;100775.28;5113737;27;8825;-78
2023/01/04 07:22:13;;;;;;;;;60.50;49.25;;;;;13.29;58.54;100772.41;5113228;27;8857;-79
2023/01/04 07:24:43;;;;;;;;;46.25;38.50;;;;;13.47;58.54;100769.06;5112993;27;8845;-78
2023/01/04 07:27:12;;;;;;;;;60.75;49.00;;;;;13.40;58.29;100778.66;5131020;27;8881;-79
2023/01/04 07:29:43;;;;;;;;;59.25;49.75;;;;;13.50;58.30;100779.59;5115465;27;8950;-80
2023/01/04 07:32:11;;;;;;;;;63.00;49.75;;;;;13.56;57.86;100778.75;5149698;27;8957;-78
2023/01/04 07:34:42;;;;;;;;;59.75;49.50;;;;;13.66;57.48;100780.56;5115830;27;8929;-80
2023/01/04 07:37:11;;;;;;;;;66.50;54.00;;;;;13.72;57.71;100788.47;5114414;27;8851;-79
2023/01/04 07:39:41;;;;;;;;;55.75;47.25;;;;;13.74;57.23;100778.00;5064486;27;8839;-76
2023/01/04 07:42:11;;;;;;;;;69.00;55.25;;;;;13.72;57.39;100779.72;5132136;27;8851;-79
2023/01/04 07:44:40;;;;;;;;;63.00;50.75;;;;;13.81;57.37;100778.03;5140961;27;8844;-80
2023/01/04 07:47:09;;;;;;;;;67.25;53.25;;;;;13.74;56.82;100780.59;5094934;27;8941;-81
2023/01/04 07:49:38;;;;;;;;;66.50;53.50;;;;;13.75;57.17;100780.63;5131966;27;8837;-78
2023/01/04 07:52:06;;;;;;;;;68.75;54.25;;;;;13.86;56.89;100775.47;5130192;27;8867;-79
2023/01/04 07:54:36;;;;;;;;;65.75;53.75;;;;;13.95;56.71;100783.38;5096466;27;8833;-81
2023/01/04 07:57:04;;;;;;;;;73.50;57.50;;;;;14.04;56.71;100787.78;5095683;27;8869;-77
2023/01/04 07:59:35;;;;;;;;;73.00;57.75;;;;;14.07;56.53;100793.06;5111799;27;8970;-79
2023/01/04 08:02:04;;;;;;;;;71.25;54.50;;;;;13.56;57.57;100797.09;5078383;27;8834;-78
2023/01/04 08:04:33;;;;;;;;;63.75;53.00;;;;;13.70;56.96;100799.81;5066645;28;8867;-80
2023/01/04 08:07:03;;;;;;;;;66.50;53.00;;;;;13.77;57.10;100799.00;5049608;28;8856;-79
2023/01/04 08:09:32;;;;;;;;;68.25;55.50;;;;;13.78;56.94;100808.59;5049207;28;9820;-79
2023/01/04 08:12:01;;;;;;;;;65.50;53.00;;;;;13.89;56.65;100806.06;5049995;28;8883;-78
2023/01/04 08:14:30;;;;;;;;;68.50;54.00;;;;;13.99;56.44;100806.13;5065926;28;8860;-80
2023/01/04 08:17:00;;;;;;;;;68.50;53.25;;;;;14.00;56.37;100807.00;5066022;28;8980;-79
2023/01/04 08:19:29;;;;;;;;;69.25;54.00;;;;;14.12;56.05;100808.81;5032683;28;8908;-77
2023/01/04 08:21:58;;;;;;;;;69.25;53.25;;;;;14.20;56.20;100801.88;5068853;28;8854;-80
2023/01/04 08:24:27;;;;;;;;;78.00;61.33;;;;;14.27;56.13;100794.88;5086054;28;9571;-81
2023/01/04 08:26:56;;;;;;;;;67.33;55.00;;;;;14.31;56.22;100796.66;5065489;28;9281;-79
2023/01/04 08:29:25;;;;;;;;;65.00;53.50;;;;;14.36;55.81;100803.66;5065135;28;10000;-79
2023/01/04 08:32:03;;;;;;;;;69.00;55.00;;;;;14.32;55.48;100803.66;5065759;28;8884;-80
2023/01/04 08:34:32;;;;;;;;;67.50;53.25;;;;;14.38;55.54;100806.31;5032338;28;8825;-77
2023/01/04 08:37:01;;;;;;;;;70.00;55.00;;;;;14.48;55.23;100801.97;5069624;28;8904;-81
2023/01/04 08:39:34;;;;;;;;;69.25;55.50;;;;;14.51;55.20;100804.63;5086285;28;8912;-80
2023/01/04 08:42:03;;;;;;;;;67.00;54.00;;;;;14.14;55.94;100805.34;5069213;28;8839;-81
2023/01/04 08:44:48;;;;;;;;;72.00;56.50;;;;;13.97;56.00;100805.25;5069008;28;8928;-78
2023/01/04 08:47:24;;;;;;;;;71.25;55.50;;;;;13.68;56.67;100806.78;5045747;28;8972;-78
2023/01/04 08:49:53;;;;;;;;;70.50;56.00;;;;;13.68;57.26;100799.78;5028716;28;8823;-81
2023/01/04 08:52:21;;;;;;;;;72.25;56.50;;;;;13.83;57.23;100799.03;5045278;28;9703;-77
2023/01/04 08:54:50;;;;;;;;;68.25;55.75;;;;;13.77;56.78;100799.88;5033119;28;8853;-79
2023/01/04 08:57:19;;;;;;;;;72.25;55.50;;;;;13.52;57.58;100803.19;5072201;28;8843;-80
2023/01/04 08:59:48;;;;;;;;;72.50;56.50;;;;;13.75;57.21;100798.97;5089236;28;8904;-79
2023/01/04 09:02:21;;;;;;;;;67.75;55.00;;;;;13.73;57.33;100803.34;5107115;28;8836;-80
2023/01/04 09:04:52;;;;;;;;;71.75;57.00;;;;;13.89;56.84;100791.19;5108332;28;8863;-79
2023/01/04 09:07:21;;;;;;;;;65.75;54.00;;;;;14.03;56.49;100797.41;5075345;28;8844;-80
2023/01/04 09:09:50;;;;;;;;;69.50;55.50;;;;;14.20;56.06;100802.75;5106294;28;8875;-80
2023/01/04 09:12:19;;;;;;;;;73.75;56.75;;;;;13.71;56.95;100789.34;5106896;28;8831;-78
2023/01/04 09:14:48;;;;;;;;;78.33;63.00;;;;;14.12;56.80;100795.69;5090074;28;8847;-79
2023/01/04 09:17:16;;;;;;;;;72.00;58.00;;;;;14.30;56.65;100790.53;5073056;28;9392;-77
2023/01/04 09:19:45;;;;;;;;;71.50;56.50;;;;;14.43;55.71;100789.72;5114511;27;8953;-79
2023/01/04 09:22:15;;;;;;;;;73.75;57.75;;;;;14.49;55.54;100794.09;5131192;27;8831;-78
2023/01/04 09:24:44;;;;;;;;;69.25;56.00;;;;;14.62;55.02;100789.81;5149913;27;9564;-79
2023/01/04 09:27:13;;;;;;;;;72.75;55.00;;;;;14.73;54.49;100789.84;5133624;27;8835;-79
2023/01/04 09:29:42;;;;;;;;;72.50;55.50;;;;;14.79;54.43;100782.84;5135564;27;8871;-79
2023/01/04 09:32:11;;;;;;;;;73.75;56.50;;;;;14.85;54.42;100781.97;5135600;27;9645;-82
2023/01/04 09:34:45;;;;;;;;;66.00;52.75;;;;;14.97;54.14;100782.00;5135098;27;8839;-81
2023/01/04 09:37:15;;;;;;;;;70.75;54.50;;;;;15.06;53.86;100783.75;5135594;27;8855;-78
2023/01/04 09:39:44;;;;;;;;;75.75;60.00;;;;;15.14;53.42;100783.75;5083893;27;8847;-80
2023/01/04 09:42:21;;;;;;;;;74.25;57.00;;;;;14.97;53.82;100789.00;5135103;27;8851;-78
2023/01/04 09:44:55;;;;;;;;;77.50;59.25;;;;;14.96;53.96;100776.75;5135083;27;8843;-80
2023/01/04 09:47:50;;;;;;;;;81.67;61.67;;;;;14.68;54.29;100775.81;5152069;27;8896;-79
2023/01/04 09:50:22;;;;;;;;;74.75;59.00;;;;;14.67;54.56;100776.69;5152166;27;8995;-80
2023/01/04 09:53:04;;;;;;;;;72.50;57.25;;;;;14.23;55.62;100773.00;5134771;27;8858;-80
2023/01/04 09:55:37;;;;;;;;;69.75;56.50;;;;;13.92;56.52;100775.50;5117666;27;8831;-79
2023/01/04 09:58:21;;;;;;;;;71.50;55.50;;;;;13.54;58.21;100768.25;5068625;27;8847;-77
2023/01/04 10:00:59;;;;;;;;;70.75;56.75;;;;;13.97;57.07;100771.16;5117667;27;8935;-79
2023/01/04 10:03:31;;;;;;;;;74.00;58.75;;;;;13.92;57.07;100765.00;5143412;27;8845;-77
2023/01/04 10:06:01;;;;;;;;;73.25;57.25;;;;;14.21;56.37;100757.28;5113673;27;8918;-77
2023/01/04 10:08:31;;;;;;;;;73.00;58.25;;;;;14.35;56.35;100751.22;5097221;27;8925;-80
2023/01/04 10:11:15;;;;;;;;;73.25;57.75;;;;;14.51;55.87;100753.00;5133005;27;8865;-80
2023/01/04 10:14:10;;;;;;;;;72.25;57.75;;;;;14.71;55.09;100744.34;5096564;27;8833;-78
2023/01/04 10:16:57;;;;;;;;;73.50;59.00;;;;;14.60;55.60;100741.69;5114065;27;8825;-80
2023/01/04 10:20:20;;;;;;;;;74.50;56.50;;;;;14.74;55.27;100737.31;5113828;27;8842;-81
2023/01/04 10:23:16;;;;;;;;;70.50;55.00;;;;;14.34;56.06;100739.81;5031312;28;8862;-79
2023/01/04 10:25:54;;;;;;;;;55.50;45.00;;;;;14.20;56.38;100736.28;5031989;28;9616;-80
2023/01/04 10:28:38;;;;;;;;;69.75;56.25;;;;;14.07;56.47;100734.47;5031695;28;8858;-78
2023/01/04 10:31:14;;;;;;;;;76.25;59.25;;;;;13.83;57.39;100730.84;5048272;28;8870;-80
2023/01/04 10:34:15;;;;;;;;;65.00;52.75;;;;;13.98;57.04;100733.56;5031554;28;8830;-79
2023/01/04 10:36:47;;;;;;;;;67.00;52.50;;;;;14.28;56.90;100731.06;5048183;28;8862;-79
2023/01/04 10:39:18;;;;;;;;;71.25;57.25;;;;;14.36;56.50;100721.44;5046377;28;8866;-81
2023/01/04 10:41:54;;;;;;;;;79.50;62.25;;;;;14.61;56.24;100717.16;5014660;28;9770;-81
2023/01/04 10:44:30;;;;;;;;;73.00;55.25;;;;;14.56;55.64;100714.50;5067181;28;8891;-79
2023/01/04 10:47:08;;;;;;;;;72.33;57.33;;;;;14.08;57.82;100723.09;5067955;28;8875;-80
2023/01/04 10:49:44;;;;;;;;;80.25;62.75;;;;;14.20;57.07;100724.03;5051164;28;8856;-81
2023/01/04 10:52:18;;;;;;;;;72.75;58.00;;;;;14.32;57.05;100720.56;5051422;28;8856;-79
2023/01/04 10:54:52;;;;;;;;;74.75;55.75;;;;;14.27;56.32;100721.41;5050647;28;8867;-78
2023/01/04 10:57:30;;;;;;;;;67.75;53.75;;;;;14.13;56.74;100716.13;5050504;28;9018;-80
2023/01/04 11:00:04;;;;;;;;;67.25;53.00;;;;;14.21;56.00;100709.16;5083145;27;8878;-80
2023/01/04 11:02:41;;;;;;;;;59.25;49.50;;;;;14.10;56.28;100703.91;5112511;27;8826;-79
2023/01/04 11:05:20;;;;;;;;;65.75;52.25;;;;;13.73;57.15;100698.47;5129715;27;8849;-78
2023/01/04 11:07:54;;;;;;;;;73.75;56.25;;;;;13.80;57.67;100692.41;5046801;27;8837;-80
2023/01/04 11:10:27;;;;;;;;;66.75;54.00;;;;;14.23;56.42;100695.19;5078226;27;8846;-80
2023/01/04 11:12:58;;;;;;;;;65.25;54.75;;;;;14.00;56.14;100692.47;5112522;27;8821;-80
2023/01/04 11:15:28;;;;;;;;;59.50;49.75;;;;;14.44;55.29;100688.22;5095706;27;9675;-80
2023/01/04 11:17:58;;;;;;;;;59.50;49.25;;;;;14.30;55.21;100685.56;5112378;27;8849;-78
2023/01/04 11:20:28;;;;;;;;;64.75;51.25;;;;;14.63;54.61;100689.19;5112338;27;8869;-79
2023/01/04 11:23:07;;;;;;;;;62.25;50.75;;;;;14.30;54.98;100679.47;5112093;27;8959;-78
2023/01/04 11:25:41;;;;;;;;;58.75;46.75;;;;;14.57;53.90;100679.56;5112570;27;8833;-79
2023/01/04 11:28:17;;;;;;;;;62.50;49.75;;;;;14.78;53.80;100675.19;5111970;27;9030;-79
2023/01/04 11:30:54;;;;;;;;;68.75;56.25;;;;;14.78;53.90;100675.19;5112013;27;8865;-78
2023/01/04 11:33:24;;;;;;;;;70.25;55.00;;;;;14.93;53.56;100666.44;5132857;27;8865;-80
2023/01/04 11:35:55;;;;;;;;;67.50;52.00;;;;;14.46;53.88;100668.13;5048699;27;8833;-77
2023/01/04 11:38:26;;;;;;;;;64.25;52.25;;;;;14.07;54.91;100676.78;5112534;27;8896;-78
2023/01/04 11:40:59;;;;;;;;;66.75;52.25;;;;;14.36;54.83;100664.59;5095002;27;8908;-82
2023/01/04 11:43:30;;;;;;;;;68.75;56.00;;;;;14.09;55.53;100672.41;5094909;27;8964;-78
2023/01/04 11:46:02;;;;;;;;;62.50;48.50;;;;;14.36;54.42;100668.97;5147390;27;8931;-80
2023/01/04 11:48:40;;;;;;;;;64.75;52.25;;;;;14.55;53.42;100668.13;5132316;27;8935;-78
2023/01/04 11:51:19;;;;;;;;;59.00;48.50;;;;;14.61;53.46;100669.91;5115307;27;8854;-80
2023/01/04 11:53:58;;;;;;;;;66.50;54.00;;;;;14.08;54.75;100662.78;5150854;27;8893;-79
2023/01/04 11:56:29;;;;;;;;;64.50;51.50;;;;;14.50;53.88;100664.63;5133254;27;8866;-80
2023/01/04 11:59:14;;;;;;;;;64.00;50.75;;;;;14.20;54.53;100662.81;5132541;27;8877;-78
2023/01/04 12:02:13;;;;;;;;;67.25;53.75;;;;;14.06;54.59;100665.38;5132055;27;8831;-79
2023/01/04 12:05:02;;;;;;;;;62.50;51.50;;;;;14.15;55.33;100659.31;5149486;27;8831;-79
2023/01/04 12:07:33;;;;;;;;;58.00;48.00;;;;;14.24;54.52;100651.47;5150767;27;8827;-79
2023/01/04 12:10:18;;;;;;;;;65.50;51.75;;;;;13.94;54.94;100655.75;5150346;27;8847;-79
2023/01/04 12:12:48;;;;;;;;;65.00;52.00;;;;;13.57;57.14;100659.94;5114764;27;9604;-80
2023/01/04 12:15:25;;;;;;;;;65.00;52.75;;;;;14.19;55.46;100661.06;5149383;27;8862;-78
2023/01/04 12:17:59;;;;;;;;;61.50;48.50;;;;;13.49;56.43;100653.78;5126971;27;8818;-80
2023/01/04 12:20:29;;;;;;;;;58.25;48.50;;;;;13.44;56.48;100649.41;5127253;27;8873;-78
2023/01/04 12:22:58;;;;;;;;;64.25;52.00;;;;;13.16;56.15;100647.47;5093329;27;8876;-79
2023/01/04 12:25:34;;;;;;;;;53.25;45.25;;;;;13.82;54.79;100642.59;5092867;27;8838;-78
2023/01/04 12:28:03;;;;;;;;;62.75;48.25;;;;;13.57;54.67;100634.63;5109740;27;8872;-78
2023/01/04 12:30:40;;;;;;;;;58.25;47.00;;;;;13.46;56.03;100631.09;5109823;27;8866;-79
2023/01/04 12:33:38;;;;;;;;;59.50;45.00;;;;;13.20;54.48;100637.00;5109786;27;9687;-82